weather.gov     
National Weather Service

Terminal Aerodrome Forecast
NWS Homepage
This page is being discontinued on March 12, 2014.
The same data is available at this site. Please update your bookmarks.
Thank you, and we apologize for the inconvenience.
Please send an email to SR-SRH.Webmaster@noaa.gov with any concerns.


Current Version
Previous Version:    01  02  03  04  05  06  07  08  09  10  11  12  13  14  15  16  17  18  19  20  21  22  23  24  25  26  27  28  29  30  
   31  32  33  34  35  36  37  38  39  40  41  
[Printable]
197
FTUS41 KOKX 291200 RRA
TAFSWF
TAF
KSWF 291200Z 2912/3018 VRB03KT P6SM SKC
     FM291800 15004KT P6SM BKN150
     FM292100 VRB03KT P6SM FEW030 OVC090
     FM300200 15004KT 4SM -SN SCT025 OVC050
     FM300400 15004KT 2SM -SN OVC015
     FM300600 VRB04KT 3/4SM -SN OVC008
     FM301100 25004KT 2SM -SN OVC015
     FM301300 29008KT 2SM -SN SCT015 OVC020
     FM301500 29011G19KT 4SM -SN BKN025
      AMD NOT SKED=




197
FTUS41 KOKX 291200 RRA
TAFSWF
TAF
KSWF 291200Z 2912/3018 VRB03KT P6SM SKC
     FM291800 15004KT P6SM BKN150
     FM292100 VRB03KT P6SM FEW030 OVC090
     FM300200 15004KT 4SM -SN SCT025 OVC050
     FM300400 15004KT 2SM -SN OVC015
     FM300600 VRB04KT 3/4SM -SN OVC008
     FM301100 25004KT 2SM -SN OVC015
     FM301300 29008KT 2SM -SN SCT015 OVC020
     FM301500 29011G19KT 4SM -SN BKN025
      AMD NOT SKED=


U.S. Dept. of Commerce
NOAA National Weather Service
1325 East West Highway
Silver Spring, MD 20910
E-mail: w-nws.webmaster@noaa.gov
Page last modified: May 16, 2007
NATIONAL WEATHER SERVICE: for Safety, for Work, for Fun - FOR LIFE